Time;durP1;ratioP1;P1;durP2;ratioP2;P2;SDS_P1;SDS_P2;PMS_P1;PMS_P2;Temp;Humidity;BMP_temperature;BMP_pressure;BME280_temperature;BME280_humidity;BME280_pressure;Samples;Min_cycle;Max_cycle;Signal;HPM_P1;HPM_P2
2023/12/26 00:00:39;;;;;;;7.88;2.00;;;;;;;3.95;100.00;98921.81;4999617;28;20157;-65
2023/12/26 00:03:07;;;;;;;12.00;2.55;;;;;;;3.75;100.00;98923.44;5007507;28;20073;-65
2023/12/26 00:05:35;;;;;;;7.93;2.45;;;;;;;3.79;100.00;98934.53;5007021;28;20096;-65
2023/12/26 00:08:03;;;;;;;4.85;1.73;;;;;;;3.73;100.00;98937.34;5008688;28;20539;-65
2023/12/26 00:10:30;;;;;;;8.57;1.77;;;;;;;3.85;100.00;98941.22;5007727;28;20488;-65
2023/12/26 00:12:57;;;;;;;7.72;1.85;;;;;;;3.78;100.00;98948.38;5008746;28;20042;-65
2023/12/26 00:15:24;;;;;;;6.05;1.60;;;;;;;3.86;100.00;98955.81;5008033;28;20050;-65
2023/12/26 00:17:50;;;;;;;9.55;2.22;;;;;;;3.80;100.00;98957.75;5008227;28;20054;-65
2023/12/26 00:20:18;;;;;;;13.50;2.25;;;;;;;3.79;100.00;98974.19;5002587;28;20236;-65
2023/12/26 00:22:44;;;;;;;6.60;1.60;;;;;;;3.87;100.00;98971.31;5007877;28;20585;-65
2023/12/26 00:25:11;;;;;;;5.90;1.83;;;;;;;3.87;100.00;98966.13;5010860;28;20292;-65
2023/12/26 00:27:39;;;;;;;9.43;2.03;;;;;;;3.82;100.00;98991.34;5009889;28;20054;-65
2023/12/26 00:30:11;;;;;;;5.13;1.77;;;;;;;3.83;100.00;98989.63;5008550;28;20046;-66
2023/12/26 00:32:38;;;;;;;3.75;1.52;;;;;;;3.87;100.00;98997.19;5012529;28;20154;-66
2023/12/26 00:35:04;;;;;;;9.98;1.77;;;;;;;3.86;100.00;98994.66;5010962;28;20376;-66
2023/12/26 00:37:34;;;;;;;4.10;1.58;;;;;;;3.81;100.00;99005.22;5012677;28;20054;-66
2023/12/26 00:40:01;;;;;;;11.68;2.03;;;;;;;3.78;100.00;99010.50;5010402;28;20050;-66
2023/12/26 00:42:31;;;;;;;8.00;2.45;;;;;;;3.66;100.00;99013.53;5004553;28;20073;-66
2023/12/26 00:44:58;;;;;;;6.03;1.92;;;;;;;3.78;100.00;99018.25;5010908;28;20863;-66
2023/12/26 00:47:25;;;;;;;6.22;2.00;;;;;;;3.79;100.00;99015.63;5012378;28;20563;-66
2023/12/26 00:49:55;;;;;;;6.95;1.90;;;;;;;3.67;100.00;99003.13;5011819;28;20053;-66
2023/12/26 00:52:22;;;;;;;7.03;1.90;;;;;;;3.64;100.00;99010.16;4998686;28;20132;-66
2023/12/26 00:54:49;;;;;;;6.50;1.70;;;;;;;3.67;100.00;99016.06;5011751;28;20053;-66
2023/12/26 00:57:16;;;;;;;9.65;2.33;;;;;;;3.49;100.00;99014.13;5008131;28;20069;-66
2023/12/26 00:59:43;;;;;;;6.72;1.60;;;;;;;3.65;100.00;99025.63;5006663;28;20168;-66
2023/12/26 01:02:11;;;;;;;8.63;2.20;;;;;;;3.45;100.00;99036.69;5010184;28;20058;-66
2023/12/26 01:04:37;;;;;;;5.97;2.00;;;;;;;3.62;100.00;99043.88;5010669;28;20057;-66
2023/12/26 01:07:05;;;;;;;7.88;1.90;;;;;;;3.80;100.00;99053.53;5010883;28;20122;-66
2023/12/26 01:09:33;;;;;;;9.13;1.80;;;;;;;3.55;100.00;99055.34;5010270;28;20050;-66
2023/12/26 01:12:00;;;;;;;6.50;1.70;;;;;;;3.68;100.00;99066.09;4998270;28;20133;-66
2023/12/26 01:14:28;;;;;;;9.75;2.20;;;;;;;3.51;100.00;99052.00;5010645;28;20605;-66
2023/12/26 01:16:54;;;;;;;4.90;1.70;;;;;;;3.63;100.00;99075.75;5011609;28;20153;-66
2023/12/26 01:19:21;;;;;;;7.45;1.85;;;;;;;3.53;100.00;99080.44;5010542;28;20052;-66
2023/12/26 01:21:48;;;;;;;6.32;1.70;;;;;;;3.65;100.00;99087.75;5010220;28;20089;-66
2023/12/26 01:24:14;;;;;;;10.73;3.00;;;;;;;3.57;100.00;99082.84;5010733;28;20241;-66
2023/12/26 01:26:42;;;;;;;6.25;2.00;;;;;;;3.61;100.00;99101.69;5002061;28;20443;-66
2023/12/26 01:29:09;;;;;;;6.75;1.98;;;;;;;3.52;100.00;99099.44;5006726;28;20057;-66
2023/12/26 01:31:36;;;;;;;8.32;1.65;;;;;;;3.63;100.00;99110.28;5006680;28;20629;-66
2023/12/26 01:34:04;;;;;;;7.85;1.75;;;;;;;3.58;100.00;99110.41;5010307;28;20404;-66
2023/12/26 01:36:32;;;;;;;3.47;1.38;;;;;;;3.59;100.00;99111.25;5010443;28;20153;-66
2023/12/26 01:39:00;;;;;;;6.93;1.90;;;;;;;3.54;100.00;99118.34;5009976;28;20432;-66
2023/12/26 01:41:27;;;;;;;5.47;1.75;;;;;;;3.71;100.00;99121.19;4997935;28;20068;-66
2023/12/26 01:43:54;;;;;;;5.10;1.67;;;;;;;3.69;100.00;99135.09;5011211;28;20054;-66
2023/12/26 01:46:21;;;;;;;5.15;1.50;;;;;;;3.57;100.00;99120.81;5009158;28;20171;-66
2023/12/26 01:48:51;;;;;;;5.40;1.70;;;;;;;3.51;100.00;99108.94;5009972;28;20622;-66
2023/12/26 01:51:21;;;;;;;5.25;1.45;;;;;;;3.69;100.00;99150.63;4998656;28;20050;-66
2023/12/26 01:53:50;;;;;;;7.43;2.15;;;;;;;3.56;100.00;99145.00;5009124;28;20046;-66
2023/12/26 01:56:17;;;;;;;5.63;1.88;;;;;;;3.58;100.00;99158.75;4993251;28;20056;-66
2023/12/26 01:58:48;;;;;;;5.22;1.58;;;;;;;3.77;100.00;99164.13;5004447;28;20082;-66
2023/12/26 02:01:16;;;;;;;7.68;1.70;;;;;;;3.68;100.00;99179.97;5008647;28;20054;-66
2023/12/26 02:03:43;;;;;;;5.10;1.90;;;;;;;3.64;100.00;99175.81;5010286;28;20089;-66
2023/12/26 02:06:11;;;;;;;9.65;1.70;;;;;;;3.52;100.00;99164.13;5010902;28;20064;-66
2023/12/26 02:08:40;;;;;;;9.18;2.03;;;;;;;3.79;100.00;99185.66;5010497;28;20049;-66
2023/12/26 02:11:08;;;;;;;5.25;1.80;;;;;;;3.72;100.00;99184.16;4999674;28;20443;-66
2023/12/26 02:13:35;;;;;;;6.00;1.60;;;;;;;3.70;100.00;99186.81;5010898;28;20046;-66
2023/12/26 02:16:07;;;;;;;11.70;2.65;;;;;;;3.56;100.00;99196.75;5001532;28;20077;-66
2023/12/26 02:18:35;;;;;;;4.55;1.65;;;;;;;3.55;100.00;99198.50;5009006;28;20487;-66
2023/12/26 02:21:02;;;;;;;3.53;1.60;;;;;;;3.47;100.00;99189.31;5005536;28;20164;-65
2023/12/26 02:23:31;;;;;;;6.43;1.67;;;;;;;3.46;100.00;99185.88;5011012;28;20050;-66
2023/12/26 02:25:59;;;;;;;8.00;1.50;;;;;;;3.56;100.00;99205.38;5010272;28;20108;-66
2023/12/26 02:28:27;;;;;;;3.80;1.40;;;;;;;3.59;100.00;99200.13;5009313;28;20082;-66
2023/12/26 02:30:54;;;;;;;5.28;1.73;;;;;;;3.47;100.00;99234.16;5006422;28;20075;-66
2023/12/26 02:33:21;;;;;;;6.90;1.77;;;;;;;3.59;100.00;99231.19;5010084;28;20467;-66
2023/12/26 02:35:48;;;;;;;3.17;1.45;;;;;;;3.63;100.00;99251.75;5009973;28;20111;-66
2023/12/26 02:38:15;;;;;;;7.85;1.70;;;;;;;3.69;100.00;99249.81;5009398;28;20041;-66
2023/12/26 02:40:42;;;;;;;5.18;1.50;;;;;;;3.66;100.00;99244.75;5008481;28;20053;-66
2023/12/26 02:43:09;;;;;;;7.20;2.20;;;;;;;3.60;100.00;99263.91;5010508;28;20045;-66
2023/12/26 02:45:35;;;;;;;7.78;2.05;;;;;;;3.60;100.00;99263.91;5009299;28;20136;-66
2023/12/26 02:48:02;;;;;;;5.70;1.50;;;;;;;3.63;100.00;99281.09;5009983;28;20050;-66
2023/12/26 02:50:31;;;;;;;5.85;1.50;;;;;;;3.39;100.00;99290.47;5008648;28;20542;-66
2023/12/26 02:52:57;;;;;;;8.13;1.77;;;;;;;3.56;100.00;99305.47;5010369;28;20042;-65
2023/12/26 02:55:24;;;;;;;5.22;1.35;;;;;;;3.67;100.00;99308.56;4992736;28;20068;-66
2023/12/26 02:57:51;;;;;;;6.13;1.80;;;;;;;3.58;100.00;99316.63;5006939;28;20419;-66
2023/12/26 03:00:18;;;;;;;5.93;1.65;;;;;;;3.65;100.00;99315.53;5002601;28;20054;-66
2023/12/26 03:02:45;;;;;;;7.07;1.88;;;;;;;3.71;100.00;99310.16;5008024;28;20057;-66
2023/12/26 03:05:11;;;;;;;4.13;1.35;;;;;;;3.68;100.00;99328.34;5005354;28;20428;-66
2023/12/26 03:07:38;;;;;;;4.95;1.60;;;;;;;3.43;100.00;99323.13;5009771;28;20530;-66
2023/12/26 03:10:08;;;;;;;5.55;1.70;;;;;;;3.53;100.00;99326.28;5006970;28;20050;-66
2023/12/26 03:12:36;;;;;;;7.10;1.58;;;;;;;3.47;100.00;99345.44;5009605;28;20059;-66
2023/12/26 03:15:03;;;;;;;3.95;1.45;;;;;;;3.56;100.00;99342.56;5007355;28;20675;-66
2023/12/26 03:17:30;;;;;;;6.00;1.50;;;;;;;3.57;100.00;99352.00;5005226;28;20046;-66
2023/12/26 03:19:57;;;;;;;4.70;1.58;;;;;;;3.60;100.00;99359.69;5007449;28;20046;-65
2023/12/26 03:22:24;;;;;;;2.55;1.23;;;;;;;3.63;100.00;99360.47;5002151;28;20061;-66
2023/12/26 03:24:51;;;;;;;4.63;1.25;;;;;;;3.53;100.00;99368.53;5008958;28;20052;-66
2023/12/26 03:27:17;;;;;;;3.83;1.23;;;;;;;3.54;100.00;99380.59;5007339;28;20046;-66
2023/12/26 03:29:44;;;;;;;3.80;1.48;;;;;;;3.54;100.00;99377.13;5001150;28;20084;-65
2023/12/26 03:32:12;;;;;;;2.97;1.48;;;;;;;3.48;100.00;99375.56;5006593;28;20053;-65
2023/12/26 03:34:39;;;;;;;6.07;1.42;;;;;;;3.47;100.00;99386.84;4998491;28;20518;-65
2023/12/26 03:37:06;;;;;;;5.07;1.40;;;;;;;3.42;100.00;99394.72;5009285;28;20053;-65
2023/12/26 03:39:32;;;;;;;2.95;1.15;;;;;;;3.44;100.00;99391.25;5008254;28;20456;-65
2023/12/26 03:41:59;;;;;;;3.47;1.38;;;;;;;3.43;100.00;99395.56;5000499;28;20056;-65
2023/12/26 03:44:26;;;;;;;4.00;1.40;;;;;;;3.36;100.00;99402.66;5009625;28;20057;-65
2023/12/26 03:46:53;;;;;;;3.30;1.30;;;;;;;3.40;100.00;99403.44;5009068;28;20050;-65
2023/12/26 03:49:19;;;;;;;6.18;1.48;;;;;;;3.37;100.00;99406.94;5003230;28;20057;-66
2023/12/26 03:51:47;;;;;;;4.03;1.50;;;;;;;3.39;100.00;99401.72;4995434;28;20476;-65
2023/12/26 03:54:14;;;;;;;9.43;1.67;;;;;;;3.42;100.00;99419.78;5008863;28;20046;-65
2023/12/26 03:56:41;;;;;;;2.88;1.20;;;;;;;3.32;100.00;99408.81;4991394;28;20061;-66
2023/12/26 03:59:08;;;;;;;3.50;1.42;;;;;;;3.39;100.00;99425.88;5006433;28;20050;-65
2023/12/26 04:01:35;;;;;;;7.00;2.28;;;;;;;3.38;100.00;99424.19;4999141;28;20050;-66
2023/12/26 04:04:03;;;;;;;4.75;1.30;;;;;;;3.36;100.00;99444.06;5012895;28;20054;-66
2023/12/26 04:06:30;;;;;;;4.65;1.38;;;;;;;3.36;100.00;99438.88;4995984;28;20058;-65
2023/12/26 04:08:57;;;;;;;3.20;1.50;;;;;;;3.21;100.00;99436.75;5011777;28;21253;-65
2023/12/26 04:11:23;;;;;;;5.00;1.60;;;;;;;3.19;100.00;99446.31;5001331;28;20088;-65
2023/12/26 04:13:50;;;;;;;4.22;1.60;;;;;;;3.24;100.00;99452.19;5012693;28;20069;-66
2023/12/26 04:16:17;;;;;;;7.40;1.38;;;;;;;3.29;100.00;99459.81;5012573;28;20041;-66
2023/12/26 04:18:43;;;;;;;12.23;2.50;;;;;;;3.13;100.00;99449.88;5010593;28;20502;-65
2023/12/26 04:21:10;;;;;;;3.97;1.30;;;;;;;3.22;100.00;99448.78;5007814;28;20132;-65
2023/12/26 04:23:37;;;;;;;8.43;1.40;;;;;;;3.16;100.00;99454.97;5013036;28;20045;-66
2023/12/26 04:26:05;;;;;;;4.45;1.60;;;;;;;3.10;100.00;99459.47;5005350;28;20148;-66
2023/12/26 04:28:31;;;;;;;2.88;1.25;;;;;;;3.05;100.00;99464.78;5011493;28;20127;-66
2023/12/26 04:30:59;;;;;;;5.55;1.52;;;;;;;2.81;100.00;99471.44;5007462;28;20495;-65
2023/12/26 04:33:26;;;;;;;4.18;1.30;;;;;;;2.98;100.00;99476.19;5012292;28;20415;-65
2023/12/26 04:35:53;;;;;;;3.75;1.35;;;;;;;3.07;100.00;99483.69;5011892;28;20451;-65
2023/12/26 04:38:20;;;;;;;2.90;1.30;;;;;;;3.03;100.00;99474.31;5011430;28;20099;-65
2023/12/26 04:40:47;;;;;;;3.53;1.27;;;;;;;2.95;100.00;99481.41;4992012;28;20054;-66
2023/12/26 04:43:15;;;;;;;4.00;1.30;;;;;;;3.03;100.00;99479.50;5011720;28;20108;-66
2023/12/26 04:45:42;;;;;;;5.22;1.17;;;;;;;3.16;100.00;99498.09;5011365;28;20135;-66
2023/12/26 04:48:09;;;;;;;5.05;1.52;;;;;;;2.89;100.00;99487.59;5011739;28;20380;-66
2023/12/26 04:50:36;;;;;;;5.78;1.85;;;;;;;3.07;100.00;99509.53;5005653;28;20452;-66
2023/12/26 04:53:04;;;;;;;4.00;1.35;;;;;;;3.03;100.00;99511.38;5008545;28;20131;-66
2023/12/26 04:55:34;;;;;;;5.10;1.40;;;;;;;3.06;100.00;99527.69;5004826;28;20072;-66
2023/12/26 04:58:00;;;;;;;3.92;1.25;;;;;;;2.99;100.00;99524.41;5007619;28;20403;-66
2023/12/26 05:00:27;;;;;;;4.25;1.35;;;;;;;3.10;100.00;99529.28;5000584;28;20046;-66
2023/12/26 05:02:55;;;;;;;3.70;1.40;;;;;;;2.96;100.00;99529.66;5005108;28;20056;-66
2023/12/26 05:05:22;;;;;;;2.78;1.20;;;;;;;3.03;100.00;99528.63;5007800;28;20049;-66
2023/12/26 05:07:49;;;;;;;4.93;1.23;;;;;;;2.96;100.00;99542.59;5011878;28;20058;-66
2023/12/26 05:10:16;;;;;;;3.65;1.17;;;;;;;2.92;100.00;99543.53;5006999;28;20057;-65
2023/12/26 05:12:42;;;;;;;3.85;2.00;;;;;;;3.03;100.00;99552.75;5011454;28;20134;-65
2023/12/26 05:15:09;;;;;;;2.95;1.27;;;;;;;2.93;100.00;99555.59;5010843;28;20049;-66
2023/12/26 05:17:36;;;;;;;12.35;2.20;;;;;;;2.69;100.00;99555.28;5011091;28;20061;-65
2023/12/26 05:20:04;;;;;;;4.38;1.27;;;;;;;2.87;100.00;99554.03;5009143;28;20138;-65
2023/12/26 05:22:47;;;;;;;4.70;1.00;;;;;;;2.96;100.00;99578.81;5010750;28;20046;-65
2023/12/26 05:25:14;;;;;;;3.10;1.30;;;;;;;2.76;100.00;99545.66;5006917;28;20056;-65
2023/12/26 05:27:40;;;;;;;3.15;1.30;;;;;;;2.89;100.00;99577.25;5011320;28;20058;-65
2023/12/26 05:30:08;;;;;;;6.22;1.55;;;;;;;2.92;100.00;99572.84;5002259;28;20487;-65
2023/12/26 05:32:35;;;;;;;3.17;1.30;;;;;;;2.99;100.00;99584.75;5006449;28;20140;-65
2023/12/26 05:35:04;;;;;;;4.90;1.50;;;;;;;2.76;100.00;99599.94;5008422;28;20093;-65
2023/12/26 05:37:30;;;;;;;3.67;1.20;;;;;;;2.85;100.00;99574.75;5006059;28;20054;-64
2023/12/26 05:39:57;;;;;;;3.67;1.50;;;;;;;2.71;100.00;99597.50;5008994;28;20052;-65
2023/12/26 05:42:24;;;;;;;2.25;1.20;;;;;;;2.78;100.00;99587.84;4991991;28;20054;-65
2023/12/26 05:44:51;;;;;;;4.50;1.63;;;;;;;2.74;100.00;99604.31;5011040;28;20046;-66
2023/12/26 05:47:20;;;;;;;8.38;1.50;;;;;;;2.80;100.00;99612.78;5010284;28;20050;-65
2023/12/26 05:49:47;;;;;;;2.78;1.30;;;;;;;2.80;100.00;99606.78;5010175;28;20053;-66
2023/12/26 05:52:14;;;;;;;2.58;1.20;;;;;;;2.92;100.00;99622.00;5000803;28;20046;-65
2023/12/26 05:54:40;;;;;;;6.43;1.23;;;;;;;2.72;100.00;99619.00;5010522;28;20076;-65
2023/12/26 05:57:08;;;;;;;2.88;1.17;;;;;;;2.67;100.00;99621.69;5009665;28;20060;-65
2023/12/26 05:59:34;;;;;;;4.20;1.38;;;;;;;2.85;100.00;99630.75;5001169;28;20112;-66
2023/12/26 06:02:02;;;;;;;2.67;1.33;;;;;;;2.89;100.00;99637.56;5008104;28;20049;-65
2023/12/26 06:04:28;;;;;;;4.72;1.20;;;;;;;2.85;100.00;99636.78;5010157;28;20092;-65
2023/12/26 06:06:55;;;;;;;6.63;1.60;;;;;;;2.69;100.00;99645.75;5009893;28;20053;-66
2023/12/26 06:09:22;;;;;;;6.40;1.30;;;;;;;2.81;100.00;99644.63;5009839;28;20443;-65
2023/12/26 06:11:49;;;;;;;5.55;1.45;;;;;;;2.42;100.00;99623.97;5008891;28;20053;-65
2023/12/26 06:14:15;;;;;;;3.90;1.20;;;;;;;2.73;100.00;99656.91;4993010;28;20120;-65
2023/12/26 06:16:42;;;;;;;1.88;1.20;;;;;;;2.60;100.00;99664.94;5001810;28;20046;-65
2023/12/26 06:19:09;;;;;;;3.60;1.40;;;;;;;2.88;100.00;99668.63;5002335;28;20073;-65
2023/12/26 06:21:36;;;;;;;5.97;1.30;;;;;;;2.76;100.00;99667.16;5009496;28;20046;-65
2023/12/26 06:24:04;;;;;;;6.57;1.95;;;;;;;2.79;100.00;99680.03;5010251;28;20704;-65
2023/12/26 06:26:30;;;;;;;4.43;1.40;;;;;;;2.71;100.00;99692.25;5010743;28;20389;-65
2023/12/26 06:28:57;;;;;;;3.17;1.40;;;;;;;2.78;100.00;99691.22;5007175;28;20054;-65
2023/12/26 06:31:24;;;;;;;2.97;1.30;;;;;;;2.71;100.00;99689.66;5004059;28;20060;-65
2023/12/26 06:33:51;;;;;;;3.28;1.30;;;;;;;2.69;100.00;99688.84;5009787;28;20129;-65
2023/12/26 06:36:18;;;;;;;2.22;1.10;;;;;;;2.64;100.00;99691.56;5009687;28;20415;-65
2023/12/26 06:38:45;;;;;;;6.18;1.30;;;;;;;2.66;100.00;99702.72;5008383;28;20088;-65
2023/12/26 06:41:12;;;;;;;2.72;1.23;;;;;;;2.59;100.00;99701.16;5007925;28;20057;-65
2023/12/26 06:43:38;;;;;;;2.72;1.30;;;;;;;2.62;100.00;99709.69;5009640;28;20165;-65
2023/12/26 06:46:05;;;;;;;3.30;1.50;;;;;;;2.44;100.00;99704.88;5008821;28;20053;-65
2023/12/26 06:48:32;;;;;;;2.72;1.27;;;;;;;2.52;100.00;99715.09;4999604;28;20053;-65
2023/12/26 06:51:05;;;;;;;2.70;1.10;;;;;;;2.60;100.00;99737.31;5006188;28;20504;-65
2023/12/26 06:53:31;;;;;;;5.32;1.50;;;;;;;2.59;100.00;99747.66;5009523;28;20045;-65
2023/12/26 06:55:58;;;;;;;4.00;1.17;;;;;;;2.65;100.00;99747.53;5009441;28;20060;-65
2023/12/26 06:58:25;;;;;;;4.75;1.55;;;;;;;2.64;100.00;99754.44;5008287;28;20693;-65
2023/12/26 07:00:52;;;;;;;2.63;1.10;;;;;;;2.73;100.00;99760.31;4999441;28;20488;-65
2023/12/26 07:03:18;;;;;;;4.35;1.27;;;;;;;2.71;100.00;99762.03;5007986;28;20531;-65
2023/12/26 07:05:45;;;;;;;3.20;1.23;;;;;;;2.75;100.00;99769.72;5013000;28;20065;-65
2023/12/26 07:08:12;;;;;;;2.25;1.13;;;;;;;2.63;100.00;99769.97;5003558;28;20058;-65
2023/12/26 07:10:39;;;;;;;1.88;1.02;;;;;;;2.60;100.00;99772.59;5007702;28;20057;-65
2023/12/26 07:13:06;;;;;;;2.75;1.30;;;;;;;2.53;100.00;99777.03;5007781;28;20073;-65
2023/12/26 07:15:32;;;;;;;2.72;1.20;;;;;;;2.40;100.00;99783.34;5004219;28;20045;-65
2023/12/26 07:17:59;;;;;;;3.28;1.10;;;;;;;2.35;100.00;99787.75;5008040;28;20045;-65
2023/12/26 07:20:26;;;;;;;4.15;1.17;;;;;;;2.36;100.00;99777.41;5007495;28;20046;-65
2023/12/26 07:22:53;;;;;;;2.75;1.13;;;;;;;2.34;100.00;99788.63;5008073;28;20045;-65
2023/12/26 07:25:20;;;;;;;4.57;1.27;;;;;;;2.33;100.00;99792.94;5009164;28;20042;-66
2023/12/26 07:27:46;;;;;;;2.67;1.20;;;;;;;2.38;100.00;99809.22;5008214;28;20054;-65
2023/12/26 07:30:13;;;;;;;4.82;1.35;;;;;;;2.17;100.00;99794.13;5002757;28;20132;-65
2023/12/26 07:32:40;;;;;;;2.75;1.20;;;;;;;2.24;100.00;99814.63;5003496;28;20425;-65
2023/12/26 07:35:07;;;;;;;6.40;1.35;;;;;;;2.39;100.00;99829.00;5012980;28;20578;-65
2023/12/26 07:37:33;;;;;;;2.47;1.40;;;;;;;2.36;100.00;99823.91;5009876;28;20050;-65
2023/12/26 07:40:00;;;;;;;3.75;1.45;;;;;;;2.25;100.00;99846.50;5007619;28;20141;-65
2023/12/26 07:42:27;;;;;;;2.28;1.17;;;;;;;2.32;100.00;99835.16;4999566;28;20056;-65
2023/12/26 07:44:53;;;;;;;2.85;1.30;;;;;;;2.46;100.00;99851.28;5008624;28;20542;-65
2023/12/26 07:47:20;;;;;;;2.65;1.38;;;;;;;2.46;100.00;99848.69;5008523;28;20324;-65
2023/12/26 07:49:47;;;;;;;6.03;2.05;;;;;;;2.41;100.00;99834.16;5009262;28;20057;-65
2023/12/26 07:52:14;;;;;;;4.10;1.17;;;;;;;2.57;100.00;99868.31;5008137;28;20042;-65
2023/12/26 07:54:41;;;;;;;5.35;1.52;;;;;;;2.46;100.00;99874.53;5009314;28;20125;-65
2023/12/26 07:57:08;;;;;;;3.58;1.40;;;;;;;2.60;100.00;99873.41;5009024;28;20053;-65
2023/12/26 07:59:35;;;;;;;5.45;1.20;;;;;;;2.51;100.00;99882.16;5004999;28;20057;-65
2023/12/26 08:02:02;;;;;;;4.30;1.30;;;;;;;2.42;100.00;99883.19;5001749;28;20045;-65
2023/12/26 08:04:28;;;;;;;4.20;1.40;;;;;;;2.44;100.00;99889.22;5007008;28;20388;-64
2023/12/26 08:06:55;;;;;;;6.50;1.50;;;;;;;2.36;100.00;99887.63;5009237;28;20077;-65
2023/12/26 08:09:22;;;;;;;4.20;1.20;;;;;;;2.46;100.00;99892.63;5010114;28;20060;-65
2023/12/26 08:11:48;;;;;;;5.13;1.40;;;;;;;2.44;100.00;99902.13;5010117;28;20128;-65
2023/12/26 08:14:17;;;;;;;4.15;1.33;;;;;;;2.38;100.00;99899.63;5016526;28;20128;-65
2023/12/26 08:16:45;;;;;;;3.05;1.20;;;;;;;2.45;100.00;99902.97;5003918;28;20042;-65
2023/12/26 08:19:12;;;;;;;1.77;1.20;;;;;;;2.51;100.00;99909.75;5008027;28;20543;-65
2023/12/26 08:21:39;;;;;;;3.50;1.20;;;;;;;2.47;100.00;99914.13;5006165;28;20083;-65
2023/12/26 08:24:07;;;;;;;7.15;1.50;;;;;;;2.42;100.00;99929.69;5008959;28;20056;-65
2023/12/26 08:26:34;;;;;;;2.50;1.52;;;;;;;2.53;100.00;99931.25;5008275;28;20093;-65
2023/12/26 08:29:01;;;;;;;6.40;1.48;;;;;;;2.33;100.00;99929.00;5006279;28;20046;-65
2023/12/26 08:31:27;;;;;;;3.30;1.20;;;;;;;2.47;100.00;99939.97;4997314;28;20050;-65
2023/12/26 08:33:54;;;;;;;2.55;1.30;;;;;;;2.27;100.00;99930.81;5008719;28;20416;-65
2023/12/26 08:36:21;;;;;;;3.45;1.27;;;;;;;2.45;100.00;99933.97;5009128;28;20559;-65
2023/12/26 08:38:47;;;;;;;3.05;1.10;;;;;;;2.50;100.00;99946.81;4991022;28;20507;-65
2023/12/26 08:41:14;;;;;;;4.43;1.10;;;;;;;2.46;100.00;99938.25;5006490;28;20084;-65
2023/12/26 08:43:41;;;;;;;3.22;1.38;;;;;;;2.57;100.00;99969.94;5010232;28;20136;-65
2023/12/26 08:46:08;;;;;;;1.98;1.20;;;;;;;2.65;100.00;99986.16;5005685;28;20054;-65
2023/12/26 08:48:35;;;;;;;3.90;1.55;;;;;;;2.64;100.00;99996.56;5012803;28;20487;-65
2023/12/26 08:51:01;;;;;;;4.57;1.40;;;;;;;2.49;100.00;99995.06;5002953;28;20057;-65
2023/12/26 08:53:28;;;;;;;4.05;1.40;;;;;;;2.58;100.00;100004.38;5012017;28;20579;-65
2023/12/26 08:55:55;;;;;;;2.60;1.20;;;;;;;2.50;100.00;99983.84;5002583;28;20064;-65
2023/12/26 08:58:22;;;;;;;2.95;1.30;;;;;;;2.65;100.00;99996.50;5008590;28;20056;-65
2023/12/26 09:00:48;;;;;;;2.75;1.23;;;;;;;2.69;100.00;100002.47;5009242;28;20137;-65
2023/12/26 09:03:15;;;;;;;4.82;1.30;;;;;;;2.61;100.00;100009.53;5011999;28;20084;-65
2023/12/26 09:05:42;;;;;;;2.17;1.20;;;;;;;2.81;100.00;100015.19;5009475;28;20129;-65
2023/12/26 09:08:09;;;;;;;2.40;1.20;;;;;;;2.65;100.00;100012.00;5010364;28;20400;-65
2023/12/26 09:10:36;;;;;;;3.00;1.20;;;;;;;2.88;100.00;100035.78;5009731;28;20464;-65
2023/12/26 09:13:03;;;;;;;1.63;1.02;;;;;;;2.79;100.00;100036.78;5012661;28;20132;-66
2023/12/26 09:15:29;;;;;;;2.33;1.20;;;;;;;3.01;100.00;100043.31;5011238;28;20042;-66
2023/12/26 09:17:56;;;;;;;2.95;1.20;;;;;;;2.92;100.00;100048.66;5006697;28;20045;-66
2023/12/26 09:20:23;;;;;;;5.57;1.35;;;;;;;2.96;100.00;100057.19;5000085;28;20073;-66
2023/12/26 09:22:50;;;;;;;2.25;1.15;;;;;;;2.71;100.00;100052.44;5006958;28;20072;-66
2023/12/26 09:25:17;;;;;;;3.28;1.52;;;;;;;3.02;100.00;100070.00;5011555;28;20610;-66
2023/12/26 09:27:44;;;;;;;1.60;1.10;;;;;;;2.87;100.00;100071.13;5011497;28;20145;-66
2023/12/26 09:30:11;;;;;;;2.08;1.15;;;;;;;3.12;100.00;100078.47;5007770;28;20046;-66
2023/12/26 09:32:38;;;;;;;2.05;1.10;;;;;;;3.19;100.00;100086.09;5007235;28;20507;-66
2023/12/26 09:35:05;;;;;;;3.25;1.20;;;;;;;3.11;100.00;100085.38;5000116;28;21919;-66
2023/12/26 09:37:38;;;;;;;2.65;1.20;;;;;;;2.93;100.00;100063.25;5001362;28;20082;-65
2023/12/26 09:40:12;;;;;;;2.53;1.10;;;;;;;3.23;100.00;100099.81;4991018;28;20050;-65
2023/12/26 09:42:39;;;;;;;3.75;1.20;;;;;;;3.17;100.00;100105.09;5004931;28;20046;-65
2023/12/26 09:45:10;;;;;;;1.55;1.02;;;;;;;3.17;100.00;100110.25;5009744;28;20096;-65
2023/12/26 09:47:40;;;;;;;3.28;1.30;;;;;;;3.34;100.00;100133.28;5001215;28;20072;-65
2023/12/26 09:50:11;;;;;;;2.10;1.23;;;;;;;3.43;100.00;100135.69;5003608;28;20125;-65
2023/12/26 09:52:42;;;;;;;2.45;1.10;;;;;;;3.24;100.00;100124.84;5000724;28;20464;-65
2023/12/26 09:55:10;;;;;;;3.15;1.20;;;;;;;3.19;100.00;100132.66;5008186;28;20050;-65
2023/12/26 09:57:38;;;;;;;1.85;1.17;;;;;;;3.35;100.00;100135.84;4991336;28;20056;-65
2023/12/26 10:00:06;;;;;;;4.15;1.35;;;;;;;3.45;100.00;100133.91;5005638;28;20065;-65
2023/12/26 10:02:33;;;;;;;3.05;1.40;;;;;;;3.46;100.00;100137.38;5005861;28;20057;-65
2023/12/26 10:04:59;;;;;;;3.42;1.23;;;;;;;3.26;100.00;100138.59;5006784;28;20452;-65
2023/12/26 10:07:27;;;;;;;2.65;1.30;;;;;;;3.38;100.00;100153.91;5005485;28;20392;-65
2023/12/26 10:09:54;;;;;;;6.15;1.40;;;;;;;3.15;100.00;100136.19;5004199;28;20060;-65
2023/12/26 10:12:26;;;;;;;2.95;1.33;;;;;;;3.48;100.00;100143.38;5007187;28;20053;-65
2023/12/26 10:15:11;;;;;;;2.28;1.27;;;;;;;3.57;100.00;100156.16;5010900;28;20401;-66
2023/12/26 10:17:40;;;;;;;3.75;1.20;;;;;;;3.50;100.00;100132.09;5010229;28;20050;-66
2023/12/26 10:20:07;;;;;;;3.28;1.33;;;;;;;3.58;100.00;100158.72;5009543;28;20057;-65
2023/12/26 10:22:34;;;;;;;4.15;1.40;;;;;;;3.40;100.00;100166.81;5002072;28;20416;-66
2023/12/26 10:25:02;;;;;;;3.03;1.30;;;;;;;3.48;100.00;100152.00;5010200;28;20407;-65
2023/12/26 10:27:29;;;;;;;3.55;1.40;;;;;;;3.65;100.00;100180.19;5009599;28;20415;-65
2023/12/26 10:29:56;;;;;;;2.47;1.30;;;;;;;3.79;100.00;100170.41;5006097;28;20061;-65
2023/12/26 10:32:24;;;;;;;3.80;1.40;;;;;;;3.74;100.00;100192.09;5005201;28;20065;-65
2023/12/26 10:34:52;;;;;;;3.25;1.38;;;;;;;3.52;100.00;100187.28;5004935;28;20439;-64
2023/12/26 10:37:21;;;;;;;5.07;1.42;;;;;;;3.85;100.00;100216.06;5010965;28;20050;-65
2023/12/26 10:39:51;;;;;;;5.18;1.40;;;;;;;3.89;100.00;100222.88;5010115;28;20487;-65
2023/12/26 10:42:18;;;;;;;5.10;1.70;;;;;;;3.86;100.00;100212.59;5008853;28;20085;-65
2023/12/26 10:45:04;;;;;;;6.03;1.70;;;;;;;4.02;100.00;100220.06;5012841;28;20045;-65
2023/12/26 10:47:32;;;;;;;5.60;1.65;;;;;;;4.16;100.00;100226.72;5009342;28;20395;-65
2023/12/26 10:50:02;;;;;;;2.90;1.20;;;;;;;4.05;100.00;100236.41;5010013;28;20518;-65
2023/12/26 10:52:29;;;;;;;2.67;1.17;;;;;;;3.99;100.00;100232.19;4992412;28;20054;-65
2023/12/26 10:54:59;;;;;;;6.05;1.63;;;;;;;3.92;100.00;100224.59;5010546;28;20480;-65
2023/12/26 10:57:33;;;;;;;7.00;1.63;;;;;;;4.03;100.00;100232.16;5009569;28;20049;-65
2023/12/26 13:53:24;;;;;;;3.90;1.23;;;;;;;5.14;100.00;100542.97;5018858;28;20061;-66
2023/12/26 13:56:09;;;;;;;;;;;;;;;5.17;100.00;100547.28;5003195;28;20056;-66
2023/12/26 13:59:14;;;;;;;4.10;1.20;;;;;;;5.10;100.00;100540.50;5000237;28;20303;-66
2023/12/26 14:02:18;;;;;;;4.57;1.75;;;;;;;5.13;100.00;100550.78;4999242;28;20060;-66
2023/12/26 14:05:22;;;;;;;3.22;1.20;;;;;;;5.04;100.00;100553.56;5010239;28;20058;-66
2023/12/26 14:08:26;;;;;;;3.25;1.27;;;;;;;5.10;100.00;100564.69;5007606;28;20502;-66
2023/12/26 14:11:30;;;;;;;3.55;1.35;;;;;;;5.04;100.00;100563.94;5007066;28;20157;-67
2023/12/26 14:14:35;;;;;;;2.88;1.25;;;;;;;4.98;100.00;100566.66;5009841;28;20098;-67
2023/12/26 14:17:40;;;;;;;4.38;1.42;;;;;;;4.92;100.00;100562.41;5007970;28;20133;-67
2023/12/26 14:20:44;;;;;;;8.52;3.70;;;;;;;5.00;100.00;100581.31;5008165;28;20046;-66
2023/12/26 14:23:48;;;;;;;5.63;2.13;;;;;;;4.94;100.00;100577.06;5007148;28;20413;-67
2023/12/26 14:26:52;;;;;;;4.40;1.80;;;;;;;4.84;100.00;100587.63;5011629;28;20053;-66
2023/12/26 14:29:57;;;;;;;5.30;1.70;;;;;;;4.91;100.00;100578.88;5014637;28;20056;-67
2023/12/26 14:33:01;;;;;;;6.57;1.60;;;;;;;4.92;100.00;100583.16;5007648;28;21139;-65